sensor_id;sensor_type;location;lat;lon;timestamp;P1;durP1;ratioP1;P2;durP2;ratioP2
25854;SDS011;13680;49.936;11.344;2024-01-10T00:00:07;27.83;;;8.65;;
25854;SDS011;13680;49.936;11.344;2024-01-10T00:02:34;22.20;;;7.82;;
25854;SDS011;13680;49.936;11.344;2024-01-10T00:05:00;23.95;;;7.82;;
25854;SDS011;13680;49.936;11.344;2024-01-10T00:07:25;21.77;;;8.43;;
25854;SDS011;13680;49.936;11.344;2024-01-10T00:09:51;31.13;;;9.30;;
25854;SDS011;13680;49.936;11.344;2024-01-10T00:12:16;17.27;;;6.78;;
25854;SDS011;13680;49.936;11.344;2024-01-10T00:14:41;17.30;;;6.65;;
25854;SDS011;13680;49.936;11.344;2024-01-10T00:17:06;14.90;;;6.97;;
25854;SDS011;13680;49.936;11.344;2024-01-10T00:19:32;17.73;;;7.25;;
25854;SDS011;13680;49.936;11.344;2024-01-10T00:21:57;17.13;;;5.97;;
25854;SDS011;13680;49.936;11.344;2024-01-10T00:24:23;18.60;;;6.47;;
25854;SDS011;13680;49.936;11.344;2024-01-10T00:26:48;19.95;;;7.07;;
25854;SDS011;13680;49.936;11.344;2024-01-10T00:29:14;15.63;;;6.63;;
25854;SDS011;13680;49.936;11.344;2024-01-10T00:31:39;21.17;;;7.22;;
25854;SDS011;13680;49.936;11.344;2024-01-10T00:34:05;18.40;;;7.28;;
25854;SDS011;13680;49.936;11.344;2024-01-10T00:36:30;21.90;;;7.25;;
25854;SDS011;13680;49.936;11.344;2024-01-10T00:38:55;18.02;;;7.00;;
25854;SDS011;13680;49.936;11.344;2024-01-10T00:41:21;18.30;;;7.07;;
25854;SDS011;13680;49.936;11.344;2024-01-10T00:43:46;24.80;;;8.30;;
25854;SDS011;13680;49.936;11.344;2024-01-10T00:46:11;25.42;;;8.32;;
25854;SDS011;13680;49.936;11.344;2024-01-10T00:48:37;21.77;;;8.30;;
25854;SDS011;13680;49.936;11.344;2024-01-10T00:51:02;26.13;;;8.32;;
25854;SDS011;13680;49.936;11.344;2024-01-10T00:53:33;16.50;;;6.47;;
25854;SDS011;13680;49.936;11.344;2024-01-10T00:56:03;20.45;;;7.03;;
25854;SDS011;13680;49.936;11.344;2024-01-10T00:58:30;15.40;;;6.78;;
25854;SDS011;13680;49.936;11.344;2024-01-10T01:00:55;15.60;;;6.63;;
25854;SDS011;13680;49.936;11.344;2024-01-10T01:03:20;13.38;;;5.35;;
25854;SDS011;13680;49.936;11.344;2024-01-10T01:05:46;19.05;;;7.15;;
25854;SDS011;13680;49.936;11.344;2024-01-10T01:08:11;14.93;;;5.22;;
25854;SDS011;13680;49.936;11.344;2024-01-10T01:10:36;14.93;;;6.35;;
25854;SDS011;13680;49.936;11.344;2024-01-10T01:13:01;15.05;;;5.35;;
25854;SDS011;13680;49.936;11.344;2024-01-10T01:15:27;15.38;;;5.72;;
25854;SDS011;13680;49.936;11.344;2024-01-10T01:17:52;14.38;;;5.57;;
25854;SDS011;13680;49.936;11.344;2024-01-10T01:20:17;15.77;;;6.00;;
25854;SDS011;13680;49.936;11.344;2024-01-10T01:22:43;13.82;;;5.97;;
25854;SDS011;13680;49.936;11.344;2024-01-10T01:25:08;11.00;;;4.90;;
25854;SDS011;13680;49.936;11.344;2024-01-10T01:27:33;17.10;;;5.97;;
25854;SDS011;13680;49.936;11.344;2024-01-10T01:29:59;16.30;;;5.45;;
25854;SDS011;13680;49.936;11.344;2024-01-10T01:32:24;13.18;;;5.68;;
25854;SDS011;13680;49.936;11.344;2024-01-10T01:34:49;17.65;;;5.78;;
25854;SDS011;13680;49.936;11.344;2024-01-10T01:37:14;13.55;;;6.00;;
25854;SDS011;13680;49.936;11.344;2024-01-10T01:39:40;13.32;;;5.50;;
25854;SDS011;13680;49.936;11.344;2024-01-10T01:42:05;13.48;;;5.72;;
25854;SDS011;13680;49.936;11.344;2024-01-10T01:44:31;12.95;;;5.28;;
25854;SDS011;13680;49.936;11.344;2024-01-10T01:46:57;16.45;;;6.03;;
25854;SDS011;13680;49.936;11.344;2024-01-10T01:49:24;14.43;;;5.90;;
25854;SDS011;13680;49.936;11.344;2024-01-10T01:51:50;18.30;;;6.88;;
25854;SDS011;13680;49.936;11.344;2024-01-10T01:54:17;20.38;;;6.60;;
25854;SDS011;13680;49.936;11.344;2024-01-10T01:56:42;14.65;;;5.75;;
25854;SDS011;13680;49.936;11.344;2024-01-10T01:59:09;17.90;;;7.07;;
25854;SDS011;13680;49.936;11.344;2024-01-10T02:01:35;14.80;;;6.57;;
25854;SDS011;13680;49.936;11.344;2024-01-10T02:04:01;15.00;;;6.68;;
25854;SDS011;13680;49.936;11.344;2024-01-10T02:06:28;14.55;;;6.28;;
25854;SDS011;13680;49.936;11.344;2024-01-10T02:08:57;13.23;;;6.35;;
25854;SDS011;13680;49.936;11.344;2024-01-10T02:11:22;14.70;;;6.93;;
25854;SDS011;13680;49.936;11.344;2024-01-10T02:13:49;18.83;;;6.93;;
25854;SDS011;13680;49.936;11.344;2024-01-10T02:16:14;20.50;;;7.40;;
25854;SDS011;13680;49.936;11.344;2024-01-10T02:18:40;25.42;;;7.97;;
25854;SDS011;13680;49.936;11.344;2024-01-10T02:21:05;18.42;;;7.05;;
25854;SDS011;13680;49.936;11.344;2024-01-10T02:23:30;17.10;;;6.78;;
25854;SDS011;13680;49.936;11.344;2024-01-10T02:25:56;17.60;;;6.85;;
25854;SDS011;13680;49.936;11.344;2024-01-10T02:28:21;19.33;;;7.25;;
25854;SDS011;13680;49.936;11.344;2024-01-10T02:30:48;21.17;;;6.97;;
25854;SDS011;13680;49.936;11.344;2024-01-10T02:33:15;18.30;;;6.78;;
25854;SDS011;13680;49.936;11.344;2024-01-10T02:35:40;20.25;;;7.38;;
25854;SDS011;13680;49.936;11.344;2024-01-10T02:38:06;14.93;;;7.30;;
25854;SDS011;13680;49.936;11.344;2024-01-10T02:40:31;15.32;;;6.65;;
25854;SDS011;13680;49.936;11.344;2024-01-10T02:42:56;16.92;;;6.82;;
25854;SDS011;13680;49.936;11.344;2024-01-10T02:45:22;16.30;;;7.20;;
25854;SDS011;13680;49.936;11.344;2024-01-10T02:47:47;16.35;;;7.00;;
25854;SDS011;13680;49.936;11.344;2024-01-10T02:50:13;19.23;;;6.93;;
25854;SDS011;13680;49.936;11.344;2024-01-10T02:52:38;17.98;;;6.43;;
25854;SDS011;13680;49.936;11.344;2024-01-10T02:55:03;15.85;;;6.78;;
25854;SDS011;13680;49.936;11.344;2024-01-10T02:57:29;19.75;;;7.32;;
25854;SDS011;13680;49.936;11.344;2024-01-10T02:59:54;17.73;;;6.53;;
25854;SDS011;13680;49.936;11.344;2024-01-10T03:02:19;12.80;;;6.80;;
25854;SDS011;13680;49.936;11.344;2024-01-10T03:04:45;18.80;;;5.97;;
25854;SDS011;13680;49.936;11.344;2024-01-10T03:07:10;20.45;;;7.20;;
25854;SDS011;13680;49.936;11.344;2024-01-10T03:09:36;21.60;;;6.70;;
25854;SDS011;13680;49.936;11.344;2024-01-10T03:12:01;20.23;;;6.78;;
25854;SDS011;13680;49.936;11.344;2024-01-10T03:14:26;18.33;;;7.40;;
25854;SDS011;13680;49.936;11.344;2024-01-10T03:16:51;17.33;;;7.05;;
25854;SDS011;13680;49.936;11.344;2024-01-10T03:19:18;15.82;;;6.38;;
25854;SDS011;13680;49.936;11.344;2024-01-10T03:21:43;19.77;;;6.97;;
25854;SDS011;13680;49.936;11.344;2024-01-10T03:24:09;15.77;;;6.28;;
25854;SDS011;13680;49.936;11.344;2024-01-10T03:26:34;18.48;;;6.80;;
25854;SDS011;13680;49.936;11.344;2024-01-10T03:28:59;15.57;;;6.53;;
25854;SDS011;13680;49.936;11.344;2024-01-10T03:31:26;16.95;;;6.57;;
25854;SDS011;13680;49.936;11.344;2024-01-10T03:33:53;13.85;;;6.43;;
25854;SDS011;13680;49.936;11.344;2024-01-10T03:36:18;15.93;;;6.80;;
25854;SDS011;13680;49.936;11.344;2024-01-10T03:38:44;17.27;;;6.82;;
25854;SDS011;13680;49.936;11.344;2024-01-10T03:41:19;14.48;;;6.53;;
25854;SDS011;13680;49.936;11.344;2024-01-10T03:43:45;20.20;;;7.43;;
25854;SDS011;13680;49.936;11.344;2024-01-10T03:46:11;19.15;;;7.55;;
25854;SDS011;13680;49.936;11.344;2024-01-10T03:48:37;17.60;;;6.82;;
25854;SDS011;13680;49.936;11.344;2024-01-10T03:51:05;22.77;;;7.75;;
25854;SDS011;13680;49.936;11.344;2024-01-10T03:53:31;15.85;;;6.93;;
25854;SDS011;13680;49.936;11.344;2024-01-10T03:55:56;16.63;;;6.25;;
25854;SDS011;13680;49.936;11.344;2024-01-10T03:58:21;16.50;;;6.78;;
25854;SDS011;13680;49.936;11.344;2024-01-10T04:00:49;17.80;;;6.88;;
25854;SDS011;13680;49.936;11.344;2024-01-10T04:03:14;21.00;;;6.68;;
25854;SDS011;13680;49.936;11.344;2024-01-10T04:05:41;14.57;;;6.22;;
25854;SDS011;13680;49.936;11.344;2024-01-10T04:08:07;17.52;;;6.43;;
25854;SDS011;13680;49.936;11.344;2024-01-10T04:10:32;12.73;;;6.22;;
25854;SDS011;13680;49.936;11.344;2024-01-10T04:12:57;14.93;;;6.60;;
25854;SDS011;13680;49.936;11.344;2024-01-10T04:15:23;15.77;;;6.72;;
25854;SDS011;13680;49.936;11.344;2024-01-10T04:17:48;17.40;;;7.05;;
25854;SDS011;13680;49.936;11.344;2024-01-10T04:20:13;15.98;;;7.03;;
25854;SDS011;13680;49.936;11.344;2024-01-10T04:22:39;15.73;;;6.80;;
25854;SDS011;13680;49.936;11.344;2024-01-10T04:25:05;16.13;;;7.63;;
25854;SDS011;13680;49.936;11.344;2024-01-10T04:27:31;21.17;;;7.63;;
25854;SDS011;13680;49.936;11.344;2024-01-10T04:29:57;16.20;;;7.43;;
25854;SDS011;13680;49.936;11.344;2024-01-10T04:32:22;20.05;;;7.57;;
25854;SDS011;13680;49.936;11.344;2024-01-10T04:34:47;18.63;;;7.68;;
25854;SDS011;13680;49.936;11.344;2024-01-10T04:37:13;17.92;;;7.70;;
25854;SDS011;13680;49.936;11.344;2024-01-10T04:39:39;17.98;;;7.65;;
25854;SDS011;13680;49.936;11.344;2024-01-10T04:42:05;15.73;;;7.53;;
25854;SDS011;13680;49.936;11.344;2024-01-10T04:44:31;16.17;;;7.18;;
25854;SDS011;13680;49.936;11.344;2024-01-10T04:46:56;18.92;;;8.05;;
25854;SDS011;13680;49.936;11.344;2024-01-10T04:49:22;18.50;;;7.13;;
25854;SDS011;13680;49.936;11.344;2024-01-10T04:51:47;18.98;;;7.60;;
25854;SDS011;13680;49.936;11.344;2024-01-10T04:54:13;19.70;;;7.88;;
25854;SDS011;13680;49.936;11.344;2024-01-10T04:56:38;19.52;;;7.75;;
25854;SDS011;13680;49.936;11.344;2024-01-10T04:59:04;22.27;;;7.93;;
25854;SDS011;13680;49.936;11.344;2024-01-10T05:01:30;20.38;;;7.72;;
25854;SDS011;13680;49.936;11.344;2024-01-10T05:03:56;20.02;;;8.23;;
25854;SDS011;13680;49.936;11.344;2024-01-10T05:06:21;17.58;;;7.95;;
25854;SDS011;13680;49.936;11.344;2024-01-10T05:08:47;18.42;;;7.65;;
25854;SDS011;13680;49.936;11.344;2024-01-10T05:11:12;19.40;;;8.13;;
25854;SDS011;13680;49.936;11.344;2024-01-10T05:13:39;21.08;;;9.45;;
25854;SDS011;13680;49.936;11.344;2024-01-10T05:16:05;21.45;;;8.00;;
25854;SDS011;13680;49.936;11.344;2024-01-10T05:18:30;20.30;;;8.32;;
25854;SDS011;13680;49.936;11.344;2024-01-10T05:20:56;18.83;;;7.28;;
25854;SDS011;13680;49.936;11.344;2024-01-10T05:23:23;18.80;;;8.23;;
25854;SDS011;13680;49.936;11.344;2024-01-10T05:25:49;20.23;;;8.95;;
25854;SDS011;13680;49.936;11.344;2024-01-10T05:28:14;19.75;;;8.77;;
25854;SDS011;13680;49.936;11.344;2024-01-10T05:30:40;19.13;;;9.00;;
25854;SDS011;13680;49.936;11.344;2024-01-10T05:33:06;26.98;;;9.20;;
25854;SDS011;13680;49.936;11.344;2024-01-10T05:35:31;22.38;;;8.50;;
25854;SDS011;13680;49.936;11.344;2024-01-10T05:37:56;20.27;;;9.20;;
25854;SDS011;13680;49.936;11.344;2024-01-10T05:40:22;22.63;;;8.95;;
25854;SDS011;13680;49.936;11.344;2024-01-10T05:42:48;22.30;;;8.07;;
25854;SDS011;13680;49.936;11.344;2024-01-10T05:45:14;22.48;;;9.32;;
25854;SDS011;13680;49.936;11.344;2024-01-10T05:47:42;24.08;;;8.55;;
25854;SDS011;13680;49.936;11.344;2024-01-10T05:50:07;20.63;;;8.30;;
25854;SDS011;13680;49.936;11.344;2024-01-10T05:52:33;22.25;;;8.82;;
25854;SDS011;13680;49.936;11.344;2024-01-10T05:54:58;24.50;;;8.43;;
25854;SDS011;13680;49.936;11.344;2024-01-10T05:57:26;44.15;;;14.68;;
25854;SDS011;13680;49.936;11.344;2024-01-10T05:59:52;25.27;;;9.90;;
25854;SDS011;13680;49.936;11.344;2024-01-10T06:02:21;21.10;;;7.95;;
25854;SDS011;13680;49.936;11.344;2024-01-10T06:04:46;22.90;;;9.70;;
25854;SDS011;13680;49.936;11.344;2024-01-10T06:07:12;19.17;;;8.07;;
25854;SDS011;13680;49.936;11.344;2024-01-10T06:09:37;19.15;;;8.25;;
25854;SDS011;13680;49.936;11.344;2024-01-10T06:12:03;26.98;;;8.68;;
25854;SDS011;13680;49.936;11.344;2024-01-10T06:14:28;24.38;;;9.77;;
25854;SDS011;13680;49.936;11.344;2024-01-10T06:16:54;19.98;;;8.73;;
25854;SDS011;13680;49.936;11.344;2024-01-10T06:19:19;18.35;;;8.77;;
25854;SDS011;13680;49.936;11.344;2024-01-10T06:21:44;25.77;;;9.32;;
25854;SDS011;13680;49.936;11.344;2024-01-10T06:24:10;21.17;;;8.55;;
25854;SDS011;13680;49.936;11.344;2024-01-10T06:26:35;20.52;;;8.27;;
25854;SDS011;13680;49.936;11.344;2024-01-10T06:29:00;20.55;;;8.63;;
25854;SDS011;13680;49.936;11.344;2024-01-10T06:31:26;23.58;;;8.65;;
25854;SDS011;13680;49.936;11.344;2024-01-10T06:33:51;21.08;;;8.90;;
25854;SDS011;13680;49.936;11.344;2024-01-10T06:36:16;22.63;;;8.57;;
25854;SDS011;13680;49.936;11.344;2024-01-10T06:38:42;22.23;;;8.60;;
25854;SDS011;13680;49.936;11.344;2024-01-10T06:41:10;22.90;;;8.45;;
25854;SDS011;13680;49.936;11.344;2024-01-10T06:43:38;21.00;;;8.82;;
25854;SDS011;13680;49.936;11.344;2024-01-10T06:46:04;24.40;;;9.05;;
25854;SDS011;13680;49.936;11.344;2024-01-10T06:48:30;21.08;;;9.00;;
25854;SDS011;13680;49.936;11.344;2024-01-10T06:50:56;24.10;;;9.82;;
25854;SDS011;13680;49.936;11.344;2024-01-10T06:53:22;21.02;;;8.43;;
25854;SDS011;13680;49.936;11.344;2024-01-10T06:55:47;21.35;;;8.77;;
25854;SDS011;13680;49.936;11.344;2024-01-10T06:58:13;24.73;;;9.18;;
25854;SDS011;13680;49.936;11.344;2024-01-10T07:00:38;22.20;;;9.07;;
25854;SDS011;13680;49.936;11.344;2024-01-10T07:03:04;22.17;;;8.63;;
25854;SDS011;13680;49.936;11.344;2024-01-10T07:05:30;19.77;;;7.95;;
25854;SDS011;13680;49.936;11.344;2024-01-10T07:07:57;24.80;;;9.05;;
25854;SDS011;13680;49.936;11.344;2024-01-10T07:10:23;23.38;;;9.52;;
25854;SDS011;13680;49.936;11.344;2024-01-10T07:12:52;22.58;;;8.93;;
25854;SDS011;13680;49.936;11.344;2024-01-10T07:15:21;24.70;;;8.52;;
25854;SDS011;13680;49.936;11.344;2024-01-10T07:17:47;21.00;;;9.23;;
25854;SDS011;13680;49.936;11.344;2024-01-10T07:20:12;23.73;;;9.48;;
25854;SDS011;13680;49.936;11.344;2024-01-10T07:22:38;39.33;;;10.15;;
25854;SDS011;13680;49.936;11.344;2024-01-10T07:25:09;22.88;;;9.68;;
25854;SDS011;13680;49.936;11.344;2024-01-10T07:27:35;22.95;;;8.85;;
25854;SDS011;13680;49.936;11.344;2024-01-10T07:30:03;22.77;;;9.10;;
25854;SDS011;13680;49.936;11.344;2024-01-10T07:32:38;25.48;;;9.05;;
25854;SDS011;13680;49.936;11.344;2024-01-10T07:35:04;22.77;;;9.57;;
25854;SDS011;13680;49.936;11.344;2024-01-10T07:37:29;20.95;;;8.45;;
25854;SDS011;13680;49.936;11.344;2024-01-10T07:39:54;23.15;;;8.30;;
25854;SDS011;13680;49.936;11.344;2024-01-10T07:42:22;19.95;;;9.07;;
25854;SDS011;13680;49.936;11.344;2024-01-10T07:44:47;27.38;;;9.98;;
25854;SDS011;13680;49.936;11.344;2024-01-10T07:47:12;21.85;;;9.23;;
25854;SDS011;13680;49.936;11.344;2024-01-10T07:49:38;20.60;;;9.02;;
25854;SDS011;13680;49.936;11.344;2024-01-10T07:52:03;23.92;;;8.95;;
25854;SDS011;13680;49.936;11.344;2024-01-10T07:54:29;27.13;;;12.20;;
25854;SDS011;13680;49.936;11.344;2024-01-10T07:56:57;22.80;;;8.85;;
25854;SDS011;13680;49.936;11.344;2024-01-10T07:59:23;18.38;;;8.38;;
25854;SDS011;13680;49.936;11.344;2024-01-10T08:01:55;21.55;;;8.80;;
25854;SDS011;13680;49.936;11.344;2024-01-10T08:04:23;23.83;;;9.55;;
25854;SDS011;13680;49.936;11.344;2024-01-10T08:06:49;22.00;;;9.85;;
25854;SDS011;13680;49.936;11.344;2024-01-10T08:09:14;30.23;;;10.13;;
25854;SDS011;13680;49.936;11.344;2024-01-10T08:11:40;55.17;;;11.57;;
25854;SDS011;13680;49.936;11.344;2024-01-10T08:14:05;31.10;;;9.07;;
25854;SDS011;13680;49.936;11.344;2024-01-10T08:16:30;20.60;;;9.98;;
25854;SDS011;13680;49.936;11.344;2024-01-10T08:18:57;25.42;;;10.02;;
25854;SDS011;13680;49.936;11.344;2024-01-10T08:21:23;25.33;;;9.27;;
25854;SDS011;13680;49.936;11.344;2024-01-10T08:23:50;24.33;;;9.38;;
25854;SDS011;13680;49.936;11.344;2024-01-10T08:26:15;23.92;;;9.90;;
25854;SDS011;13680;49.936;11.344;2024-01-10T08:28:40;21.35;;;9.93;;
25854;SDS011;13680;49.936;11.344;2024-01-10T08:31:06;24.33;;;9.82;;
25854;SDS011;13680;49.936;11.344;2024-01-10T08:33:32;22.70;;;9.32;;
25854;SDS011;13680;49.936;11.344;2024-01-10T08:35:57;30.60;;;10.10;;
25854;SDS011;13680;49.936;11.344;2024-01-10T08:38:23;25.20;;;10.02;;
25854;SDS011;13680;49.936;11.344;2024-01-10T08:40:49;24.52;;;10.00;;
25854;SDS011;13680;49.936;11.344;2024-01-10T08:43:14;21.95;;;9.25;;
25854;SDS011;13680;49.936;11.344;2024-01-10T08:45:39;27.42;;;10.35;;
25854;SDS011;13680;49.936;11.344;2024-01-10T08:48:05;24.58;;;9.63;;
25854;SDS011;13680;49.936;11.344;2024-01-10T08:50:31;25.95;;;10.35;;
25854;SDS011;13680;49.936;11.344;2024-01-10T08:52:57;21.80;;;10.05;;
25854;SDS011;13680;49.936;11.344;2024-01-10T08:55:22;23.08;;;10.23;;
25854;SDS011;13680;49.936;11.344;2024-01-10T08:57:48;22.13;;;9.00;;
25854;SDS011;13680;49.936;11.344;2024-01-10T09:00:16;22.55;;;9.50;;
25854;SDS011;13680;49.936;11.344;2024-01-10T09:02:42;22.30;;;10.27;;
25854;SDS011;13680;49.936;11.344;2024-01-10T09:05:07;22.00;;;9.80;;
25854;SDS011;13680;49.936;11.344;2024-01-10T09:07:35;24.60;;;10.32;;
25854;SDS011;13680;49.936;11.344;2024-01-10T09:10:01;23.02;;;9.20;;
25854;SDS011;13680;49.936;11.344;2024-01-10T09:12:26;19.98;;;9.57;;
25854;SDS011;13680;49.936;11.344;2024-01-10T09:14:52;25.60;;;9.68;;
25854;SDS011;13680;49.936;11.344;2024-01-10T09:17:17;28.55;;;10.65;;
25854;SDS011;13680;49.936;11.344;2024-01-10T09:19:42;26.77;;;11.27;;
25854;SDS011;13680;49.936;11.344;2024-01-10T09:22:08;22.30;;;9.85;;
25854;SDS011;13680;49.936;11.344;2024-01-10T09:24:33;27.65;;;11.02;;
25854;SDS011;13680;49.936;11.344;2024-01-10T09:26:58;28.83;;;10.85;;
25854;SDS011;13680;49.936;11.344;2024-01-10T09:29:24;25.05;;;9.85;;
25854;SDS011;13680;49.936;11.344;2024-01-10T09:31:50;23.58;;;10.32;;
25854;SDS011;13680;49.936;11.344;2024-01-10T09:34:16;25.38;;;9.65;;
25854;SDS011;13680;49.936;11.344;2024-01-10T09:36:41;21.88;;;9.93;;
25854;SDS011;13680;49.936;11.344;2024-01-10T09:39:07;27.10;;;11.05;;
25854;SDS011;13680;49.936;11.344;2024-01-10T09:41:39;24.50;;;10.38;;
25854;SDS011;13680;49.936;11.344;2024-01-10T09:44:10;22.85;;;10.20;;
25854;SDS011;13680;49.936;11.344;2024-01-10T09:46:36;27.88;;;10.75;;
25854;SDS011;13680;49.936;11.344;2024-01-10T09:49:05;23.58;;;10.25;;
25854;SDS011;13680;49.936;11.344;2024-01-10T09:51:31;22.13;;;10.10;;
25854;SDS011;13680;49.936;11.344;2024-01-10T09:53:58;24.70;;;9.95;;
25854;SDS011;13680;49.936;11.344;2024-01-10T09:56:27;23.13;;;10.98;;
25854;SDS011;13680;49.936;11.344;2024-01-10T09:58:53;25.70;;;10.30;;
25854;SDS011;13680;49.936;11.344;2024-01-10T10:01:23;24.95;;;10.95;;
25854;SDS011;13680;49.936;11.344;2024-01-10T10:03:49;26.45;;;10.20;;
25854;SDS011;13680;49.936;11.344;2024-01-10T10:06:15;30.02;;;10.90;;
25854;SDS011;13680;49.936;11.344;2024-01-10T10:08:41;23.10;;;10.27;;
25854;SDS011;13680;49.936;11.344;2024-01-10T10:11:11;23.83;;;9.60;;
25854;SDS011;13680;49.936;11.344;2024-01-10T10:13:38;24.08;;;10.85;;
25854;SDS011;13680;49.936;11.344;2024-01-10T10:16:06;23.75;;;10.15;;
25854;SDS011;13680;49.936;11.344;2024-01-10T10:18:34;20.80;;;10.15;;
25854;SDS011;13680;49.936;11.344;2024-01-10T10:21:05;26.33;;;10.57;;
25854;SDS011;13680;49.936;11.344;2024-01-10T10:23:32;21.25;;;10.43;;
25854;SDS011;13680;49.936;11.344;2024-01-10T10:25:58;25.38;;;10.50;;
25854;SDS011;13680;49.936;11.344;2024-01-10T10:28:28;22.15;;;9.93;;
25854;SDS011;13680;49.936;11.344;2024-01-10T10:30:54;23.58;;;10.65;;
25854;SDS011;13680;49.936;11.344;2024-01-10T10:33:19;42.50;;;12.00;;
25854;SDS011;13680;49.936;11.344;2024-01-10T10:35:46;21.48;;;9.40;;
25854;SDS011;13680;49.936;11.344;2024-01-10T10:38:11;27.33;;;10.60;;
25854;SDS011;13680;49.936;11.344;2024-01-10T10:40:37;24.77;;;11.05;;
25854;SDS011;13680;49.936;11.344;2024-01-10T10:43:02;25.30;;;10.32;;
25854;SDS011;13680;49.936;11.344;2024-01-10T10:45:29;24.67;;;9.45;;
25854;SDS011;13680;49.936;11.344;2024-01-10T10:47:58;33.60;;;11.43;;
25854;SDS011;13680;49.936;11.344;2024-01-10T10:50:27;23.23;;;10.35;;
25854;SDS011;13680;49.936;11.344;2024-01-10T10:52:54;20.52;;;10.13;;
25854;SDS011;13680;49.936;11.344;2024-01-10T10:55:21;26.48;;;10.80;;
25854;SDS011;13680;49.936;11.344;2024-01-10T10:57:48;22.58;;;10.98;;
25854;SDS011;13680;49.936;11.344;2024-01-10T11:00:15;22.35;;;10.57;;
25854;SDS011;13680;49.936;11.344;2024-01-10T11:02:45;22.13;;;10.32;;
25854;SDS011;13680;49.936;11.344;2024-01-10T11:05:11;24.65;;;10.45;;
25854;SDS011;13680;49.936;11.344;2024-01-10T11:07:46;24.70;;;11.57;;
25854;SDS011;13680;49.936;11.344;2024-01-10T11:18:07;24.60;;;10.35;;
25854;SDS011;13680;49.936;11.344;2024-01-10T11:20:51;21.95;;;10.55;;
25854;SDS011;13680;49.936;11.344;2024-01-10T11:26:04;25.00;;;10.82;;
25854;SDS011;13680;49.936;11.344;2024-01-10T11:28:30;26.70;;;11.98;;
25854;SDS011;13680;49.936;11.344;2024-01-10T11:30:56;21.60;;;10.90;;
25854;SDS011;13680;49.936;11.344;2024-01-10T11:33:36;25.65;;;11.68;;
25854;SDS011;13680;49.936;11.344;2024-01-10T11:41:25;22.42;;;11.38;;
25854;SDS011;13680;49.936;11.344;2024-01-10T11:49:18;18.40;;;10.13;;
25854;SDS011;13680;49.936;11.344;2024-01-10T11:51:45;22.23;;;11.48;;
25854;SDS011;13680;49.936;11.344;2024-01-10T11:54:34;23.55;;;10.45;;
25854;SDS011;13680;49.936;11.344;2024-01-10T11:57:02;20.38;;;10.68;;
25854;SDS011;13680;49.936;11.344;2024-01-10T11:59:27;24.02;;;11.60;;
25854;SDS011;13680;49.936;11.344;2024-01-10T12:01:55;21.80;;;10.77;;
25854;SDS011;13680;49.936;11.344;2024-01-10T12:04:20;21.38;;;11.02;;
25854;SDS011;13680;49.936;11.344;2024-01-10T12:06:46;21.58;;;11.38;;
25854;SDS011;13680;49.936;11.344;2024-01-10T12:09:12;22.92;;;11.70;;
25854;SDS011;13680;49.936;11.344;2024-01-10T12:11:42;23.92;;;11.45;;
25854;SDS011;13680;49.936;11.344;2024-01-10T12:14:10;23.15;;;10.93;;
25854;SDS011;13680;49.936;11.344;2024-01-10T12:16:36;21.75;;;10.43;;
25854;SDS011;13680;49.936;11.344;2024-01-10T12:19:01;23.58;;;11.32;;
25854;SDS011;13680;49.936;11.344;2024-01-10T12:21:27;23.35;;;11.68;;
25854;SDS011;13680;49.936;11.344;2024-01-10T12:23:52;28.23;;;11.63;;
25854;SDS011;13680;49.936;11.344;2024-01-10T12:26:17;21.13;;;10.38;;
25854;SDS011;13680;49.936;11.344;2024-01-10T12:28:53;24.63;;;11.85;;
25854;SDS011;13680;49.936;11.344;2024-01-10T12:31:23;25.10;;;11.82;;
25854;SDS011;13680;49.936;11.344;2024-01-10T12:33:51;23.02;;;11.48;;
25854;SDS011;13680;49.936;11.344;2024-01-10T12:36:17;23.05;;;11.93;;
25854;SDS011;13680;49.936;11.344;2024-01-10T12:38:43;21.42;;;10.38;;
25854;SDS011;13680;49.936;11.344;2024-01-10T12:41:12;21.67;;;10.98;;
25854;SDS011;13680;49.936;11.344;2024-01-10T12:43:39;22.38;;;10.93;;
25854;SDS011;13680;49.936;11.344;2024-01-10T12:46:09;28.05;;;11.20;;
25854;SDS011;13680;49.936;11.344;2024-01-10T12:48:41;27.15;;;11.30;;
25854;SDS011;13680;49.936;11.344;2024-01-10T12:51:10;23.40;;;11.30;;
25854;SDS011;13680;49.936;11.344;2024-01-10T12:53:43;21.80;;;10.80;;
25854;SDS011;13680;49.936;11.344;2024-01-10T12:56:09;24.15;;;12.05;;
25854;SDS011;13680;49.936;11.344;2024-01-10T12:58:39;25.52;;;12.10;;
25854;SDS011;13680;49.936;11.344;2024-01-10T13:01:07;22.95;;;10.35;;
25854;SDS011;13680;49.936;11.344;2024-01-10T13:03:33;25.25;;;11.60;;
25854;SDS011;13680;49.936;11.344;2024-01-10T13:05:58;26.48;;;11.88;;
25854;SDS011;13680;49.936;11.344;2024-01-10T13:08:24;25.38;;;11.65;;
25854;SDS011;13680;49.936;11.344;2024-01-10T13:10:49;26.70;;;10.60;;
25854;SDS011;13680;49.936;11.344;2024-01-10T13:13:15;31.60;;;11.15;;
25854;SDS011;13680;49.936;11.344;2024-01-10T13:15:42;24.33;;;11.75;;
25854;SDS011;13680;49.936;11.344;2024-01-10T13:18:08;22.27;;;10.95;;
25854;SDS011;13680;49.936;11.344;2024-01-10T13:20:37;20.33;;;10.30;;
25854;SDS011;13680;49.936;11.344;2024-01-10T13:23:06;23.23;;;11.48;;
25854;SDS011;13680;49.936;11.344;2024-01-10T13:25:32;26.58;;;11.35;;
25854;SDS011;13680;49.936;11.344;2024-01-10T13:27:58;24.00;;;11.60;;
25854;SDS011;13680;49.936;11.344;2024-01-10T13:30:23;27.92;;;10.95;;
25854;SDS011;13680;49.936;11.344;2024-01-10T13:32:48;34.85;;;12.13;;
25854;SDS011;13680;49.936;11.344;2024-01-10T13:35:14;28.75;;;11.27;;
25854;SDS011;13680;49.936;11.344;2024-01-10T13:37:41;23.92;;;11.20;;
25854;SDS011;13680;49.936;11.344;2024-01-10T13:40:07;26.15;;;11.38;;
25854;SDS011;13680;49.936;11.344;2024-01-10T13:42:34;25.85;;;11.57;;
25854;SDS011;13680;49.936;11.344;2024-01-10T13:45:00;27.52;;;11.25;;
25854;SDS011;13680;49.936;11.344;2024-01-10T13:47:25;21.70;;;10.38;;
25854;SDS011;13680;49.936;11.344;2024-01-10T13:49:50;29.60;;;11.95;;
25854;SDS011;13680;49.936;11.344;2024-01-10T13:52:16;25.58;;;11.70;;
25854;SDS011;13680;49.936;11.344;2024-01-10T13:54:42;26.00;;;11.20;;
25854;SDS011;13680;49.936;11.344;2024-01-10T13:57:07;23.05;;;10.65;;
25854;SDS011;13680;49.936;11.344;2024-01-10T13:59:33;28.40;;;11.15;;
25854;SDS011;13680;49.936;11.344;2024-01-10T14:01:58;24.17;;;10.57;;
25854;SDS011;13680;49.936;11.344;2024-01-10T14:04:24;35.25;;;12.10;;
25854;SDS011;13680;49.936;11.344;2024-01-10T14:06:49;27.80;;;11.07;;
25854;SDS011;13680;49.936;11.344;2024-01-10T14:09:15;20.88;;;10.05;;
25854;SDS011;13680;49.936;11.344;2024-01-10T14:11:42;23.45;;;10.90;;
25854;SDS011;13680;49.936;11.344;2024-01-10T14:14:09;24.08;;;11.20;;
25854;SDS011;13680;49.936;11.344;2024-01-10T14:16:35;26.48;;;11.15;;
25854;SDS011;13680;49.936;11.344;2024-01-10T14:19:00;23.83;;;9.93;;
25854;SDS011;13680;49.936;11.344;2024-01-10T14:21:26;25.52;;;9.73;;
25854;SDS011;13680;49.936;11.344;2024-01-10T14:23:52;22.95;;;11.70;;
25854;SDS011;13680;49.936;11.344;2024-01-10T14:26:17;21.63;;;9.75;;
25854;SDS011;13680;49.936;11.344;2024-01-10T14:28:42;19.60;;;9.63;;
25854;SDS011;13680;49.936;11.344;2024-01-10T14:31:09;21.10;;;10.85;;